sensor_id;sensor_type;location;lat;lon;timestamp;P1;durP1;ratioP1;P2;durP2;ratioP2
13797;SDS011;6970;51.340;3.240;2023-06-01T00:00:17;23.67;;;13.47;;
13797;SDS011;6970;51.340;3.240;2023-06-01T00:02:44;20.87;;;13.57;;
13797;SDS011;6970;51.340;3.240;2023-06-01T00:05:11;23.27;;;14.20;;
13797;SDS011;6970;51.340;3.240;2023-06-01T00:07:38;23.30;;;13.87;;
13797;SDS011;6970;51.340;3.240;2023-06-01T00:10:05;21.00;;;13.80;;
13797;SDS011;6970;51.340;3.240;2023-06-01T00:12:32;33.00;;;13.63;;
13797;SDS011;6970;51.340;3.240;2023-06-01T00:15:00;24.07;;;13.17;;
13797;SDS011;6970;51.340;3.240;2023-06-01T00:17:28;33.17;;;14.57;;
13797;SDS011;6970;51.340;3.240;2023-06-01T00:19:55;24.60;;;14.40;;
13797;SDS011;6970;51.340;3.240;2023-06-01T00:22:22;29.23;;;15.30;;
13797;SDS011;6970;51.340;3.240;2023-06-01T00:24:55;35.10;;;14.40;;
13797;SDS011;6970;51.340;3.240;2023-06-01T00:27:23;27.23;;;15.93;;
13797;SDS011;6970;51.340;3.240;2023-06-01T00:29:50;30.33;;;18.23;;
13797;SDS011;6970;51.340;3.240;2023-06-01T00:32:17;32.10;;;18.67;;
13797;SDS011;6970;51.340;3.240;2023-06-01T00:34:44;38.20;;;20.87;;
13797;SDS011;6970;51.340;3.240;2023-06-01T00:37:11;34.00;;;18.97;;
13797;SDS011;6970;51.340;3.240;2023-06-01T00:39:38;31.37;;;18.97;;
13797;SDS011;6970;51.340;3.240;2023-06-01T00:42:05;33.27;;;19.00;;
13797;SDS011;6970;51.340;3.240;2023-06-01T00:44:32;33.60;;;18.43;;
13797;SDS011;6970;51.340;3.240;2023-06-01T00:46:59;41.17;;;19.90;;
13797;SDS011;6970;51.340;3.240;2023-06-01T00:49:27;32.33;;;18.07;;
13797;SDS011;6970;51.340;3.240;2023-06-01T00:51:54;36.27;;;18.63;;
13797;SDS011;6970;51.340;3.240;2023-06-01T00:54:21;35.90;;;18.23;;
13797;SDS011;6970;51.340;3.240;2023-06-01T00:56:48;39.23;;;18.47;;
13797;SDS011;6970;51.340;3.240;2023-06-01T00:59:15;30.10;;;18.23;;
13797;SDS011;6970;51.340;3.240;2023-06-01T01:01:42;37.67;;;18.87;;
13797;SDS011;6970;51.340;3.240;2023-06-01T01:04:10;30.37;;;19.07;;
13797;SDS011;6970;51.340;3.240;2023-06-01T01:07:25;25.47;;;16.83;;
13797;SDS011;6970;51.340;3.240;2023-06-01T01:10:03;35.20;;;19.47;;
13797;SDS011;6970;51.340;3.240;2023-06-01T01:12:53;37.40;;;18.53;;
13797;SDS011;6970;51.340;3.240;2023-06-01T01:15:51;32.30;;;18.77;;
13797;SDS011;6970;51.340;3.240;2023-06-01T01:21:26;32.93;;;18.00;;
13797;SDS011;6970;51.340;3.240;2023-06-01T01:27:04;32.23;;;16.00;;
13797;SDS011;6970;51.340;3.240;2023-06-01T01:29:55;31.37;;;18.07;;
13797;SDS011;6970;51.340;3.240;2023-06-01T01:32:30;31.90;;;17.10;;
13797;SDS011;6970;51.340;3.240;2023-06-01T01:34:59;27.10;;;17.97;;
13797;SDS011;6970;51.340;3.240;2023-06-01T01:37:27;31.80;;;18.37;;
13797;SDS011;6970;51.340;3.240;2023-06-01T01:39:54;38.50;;;20.80;;
13797;SDS011;6970;51.340;3.240;2023-06-01T01:42:21;34.57;;;20.47;;
13797;SDS011;6970;51.340;3.240;2023-06-01T01:44:48;34.67;;;22.03;;
13797;SDS011;6970;51.340;3.240;2023-06-01T01:47:20;34.80;;;21.23;;
13797;SDS011;6970;51.340;3.240;2023-06-01T01:50:04;29.33;;;19.40;;
13797;SDS011;6970;51.340;3.240;2023-06-01T01:52:37;33.03;;;19.07;;
13797;SDS011;6970;51.340;3.240;2023-06-01T01:55:07;31.13;;;20.37;;
13797;SDS011;6970;51.340;3.240;2023-06-01T01:57:36;29.37;;;21.20;;
13797;SDS011;6970;51.340;3.240;2023-06-01T02:00:05;27.83;;;18.73;;
13797;SDS011;6970;51.340;3.240;2023-06-01T02:02:33;23.43;;;17.60;;
13797;SDS011;6970;51.340;3.240;2023-06-01T02:05:01;28.67;;;18.67;;
13797;SDS011;6970;51.340;3.240;2023-06-01T02:07:29;24.27;;;18.03;;
13797;SDS011;6970;51.340;3.240;2023-06-01T02:09:57;34.67;;;20.00;;
13797;SDS011;6970;51.340;3.240;2023-06-01T02:12:24;27.20;;;17.63;;
13797;SDS011;6970;51.340;3.240;2023-06-01T02:14:51;32.10;;;19.23;;
13797;SDS011;6970;51.340;3.240;2023-06-01T02:17:18;31.47;;;18.80;;
13797;SDS011;6970;51.340;3.240;2023-06-01T02:19:48;28.77;;;19.20;;
13797;SDS011;6970;51.340;3.240;2023-06-01T02:22:15;31.77;;;20.47;;
13797;SDS011;6970;51.340;3.240;2023-06-01T02:24:42;38.17;;;20.67;;
13797;SDS011;6970;51.340;3.240;2023-06-01T02:27:09;38.97;;;22.20;;
13797;SDS011;6970;51.340;3.240;2023-06-01T02:29:36;28.23;;;19.53;;
13797;SDS011;6970;51.340;3.240;2023-06-01T02:32:03;36.87;;;21.40;;
13797;SDS011;6970;51.340;3.240;2023-06-01T02:34:30;29.50;;;18.43;;
13797;SDS011;6970;51.340;3.240;2023-06-01T02:36:57;25.57;;;17.27;;
13797;SDS011;6970;51.340;3.240;2023-06-01T02:39:25;26.13;;;17.47;;
13797;SDS011;6970;51.340;3.240;2023-06-01T02:41:52;23.60;;;16.53;;
13797;SDS011;6970;51.340;3.240;2023-06-01T02:44:18;22.80;;;16.90;;
13797;SDS011;6970;51.340;3.240;2023-06-01T02:46:45;23.07;;;15.33;;
13797;SDS011;6970;51.340;3.240;2023-06-01T02:49:13;36.73;;;17.13;;
13797;SDS011;6970;51.340;3.240;2023-06-01T02:51:40;24.77;;;15.83;;
13797;SDS011;6970;51.340;3.240;2023-06-01T02:54:07;25.93;;;17.97;;
13797;SDS011;6970;51.340;3.240;2023-06-01T02:56:34;28.87;;;16.37;;
13797;SDS011;6970;51.340;3.240;2023-06-01T02:59:01;25.37;;;15.60;;
13797;SDS011;6970;51.340;3.240;2023-06-01T03:01:30;23.77;;;15.20;;
13797;SDS011;6970;51.340;3.240;2023-06-01T03:04:02;19.53;;;15.10;;
13797;SDS011;6970;51.340;3.240;2023-06-01T03:06:33;30.40;;;16.77;;
13797;SDS011;6970;51.340;3.240;2023-06-01T03:09:04;30.50;;;17.90;;
13797;SDS011;6970;51.340;3.240;2023-06-01T03:11:31;22.13;;;16.17;;
13797;SDS011;6970;51.340;3.240;2023-06-01T03:13:58;28.83;;;17.67;;
13797;SDS011;6970;51.340;3.240;2023-06-01T03:16:25;28.00;;;18.13;;
13797;SDS011;6970;51.340;3.240;2023-06-01T03:18:53;25.13;;;16.33;;
13797;SDS011;6970;51.340;3.240;2023-06-01T03:21:21;25.43;;;16.80;;
13797;SDS011;6970;51.340;3.240;2023-06-01T03:23:48;23.43;;;14.87;;
13797;SDS011;6970;51.340;3.240;2023-06-01T03:26:15;20.63;;;14.80;;
13797;SDS011;6970;51.340;3.240;2023-06-01T03:28:45;20.50;;;14.20;;
13797;SDS011;6970;51.340;3.240;2023-06-01T03:31:12;22.57;;;13.37;;
13797;SDS011;6970;51.340;3.240;2023-06-01T03:33:39;27.53;;;16.67;;
13797;SDS011;6970;51.340;3.240;2023-06-01T03:36:07;26.27;;;15.77;;
13797;SDS011;6970;51.340;3.240;2023-06-01T03:38:34;20.07;;;14.87;;
13797;SDS011;6970;51.340;3.240;2023-06-01T03:41:01;25.23;;;14.53;;
13797;SDS011;6970;51.340;3.240;2023-06-01T03:43:28;31.83;;;14.47;;
13797;SDS011;6970;51.340;3.240;2023-06-01T03:45:56;23.40;;;11.90;;
13797;SDS011;6970;51.340;3.240;2023-06-01T03:48:23;17.33;;;12.33;;
13797;SDS011;6970;51.340;3.240;2023-06-01T03:50:50;21.67;;;13.37;;
13797;SDS011;6970;51.340;3.240;2023-06-01T03:53:17;22.87;;;14.30;;
13797;SDS011;6970;51.340;3.240;2023-06-01T03:55:44;23.97;;;15.37;;
13797;SDS011;6970;51.340;3.240;2023-06-01T03:58:12;20.53;;;14.03;;
13797;SDS011;6970;51.340;3.240;2023-06-01T04:00:39;28.87;;;13.83;;
13797;SDS011;6970;51.340;3.240;2023-06-01T04:03:06;21.47;;;12.97;;
13797;SDS011;6970;51.340;3.240;2023-06-01T04:05:34;23.70;;;14.97;;
13797;SDS011;6970;51.340;3.240;2023-06-01T04:08:02;20.60;;;13.87;;
13797;SDS011;6970;51.340;3.240;2023-06-01T04:10:29;17.80;;;12.43;;
13797;SDS011;6970;51.340;3.240;2023-06-01T04:12:56;20.17;;;13.07;;
13797;SDS011;6970;51.340;3.240;2023-06-01T04:15:23;21.97;;;13.23;;
13797;SDS011;6970;51.340;3.240;2023-06-01T04:17:50;21.97;;;14.43;;
13797;SDS011;6970;51.340;3.240;2023-06-01T04:20:18;20.23;;;13.47;;
13797;SDS011;6970;51.340;3.240;2023-06-01T04:22:45;20.93;;;12.53;;
13797;SDS011;6970;51.340;3.240;2023-06-01T04:25:14;18.70;;;12.07;;
13797;SDS011;6970;51.340;3.240;2023-06-01T04:27:45;16.20;;;9.73;;
13797;SDS011;6970;51.340;3.240;2023-06-01T04:30:13;17.33;;;10.30;;
13797;SDS011;6970;51.340;3.240;2023-06-01T04:32:42;15.90;;;10.73;;
13797;SDS011;6970;51.340;3.240;2023-06-01T04:35:10;21.27;;;13.77;;
13797;SDS011;6970;51.340;3.240;2023-06-01T04:37:38;18.17;;;12.17;;
13797;SDS011;6970;51.340;3.240;2023-06-01T04:40:07;17.73;;;13.20;;
13797;SDS011;6970;51.340;3.240;2023-06-01T04:42:36;24.23;;;14.30;;
13797;SDS011;6970;51.340;3.240;2023-06-01T04:45:30;24.80;;;13.70;;
13797;SDS011;6970;51.340;3.240;2023-06-01T04:47:57;19.93;;;13.03;;
13797;SDS011;6970;51.340;3.240;2023-06-01T04:50:25;18.40;;;12.40;;
13797;SDS011;6970;51.340;3.240;2023-06-01T04:52:55;19.27;;;14.27;;
13797;SDS011;6970;51.340;3.240;2023-06-01T04:55:22;20.13;;;14.07;;
13797;SDS011;6970;51.340;3.240;2023-06-01T04:57:49;20.10;;;13.47;;
13797;SDS011;6970;51.340;3.240;2023-06-01T05:00:16;16.93;;;12.83;;
13797;SDS011;6970;51.340;3.240;2023-06-01T05:02:45;20.03;;;13.47;;
13797;SDS011;6970;51.340;3.240;2023-06-01T05:05:14;19.20;;;13.27;;
13797;SDS011;6970;51.340;3.240;2023-06-01T05:07:42;18.70;;;13.57;;
13797;SDS011;6970;51.340;3.240;2023-06-01T05:10:12;18.83;;;13.40;;
13797;SDS011;6970;51.340;3.240;2023-06-01T05:12:40;21.77;;;15.40;;
13797;SDS011;6970;51.340;3.240;2023-06-01T05:15:07;20.70;;;14.70;;
13797;SDS011;6970;51.340;3.240;2023-06-01T05:17:35;21.87;;;14.40;;
13797;SDS011;6970;51.340;3.240;2023-06-01T05:20:06;18.57;;;13.30;;
13797;SDS011;6970;51.340;3.240;2023-06-01T05:22:35;16.63;;;12.53;;
13797;SDS011;6970;51.340;3.240;2023-06-01T05:25:03;19.30;;;13.50;;
13797;SDS011;6970;51.340;3.240;2023-06-01T05:27:32;17.23;;;13.20;;
13797;SDS011;6970;51.340;3.240;2023-06-01T05:29:59;16.13;;;12.60;;
13797;SDS011;6970;51.340;3.240;2023-06-01T05:32:26;21.27;;;12.50;;
13797;SDS011;6970;51.340;3.240;2023-06-01T05:34:53;20.13;;;12.03;;
13797;SDS011;6970;51.340;3.240;2023-06-01T05:37:20;21.33;;;13.47;;
13797;SDS011;6970;51.340;3.240;2023-06-01T05:39:47;16.70;;;12.70;;
13797;SDS011;6970;51.340;3.240;2023-06-01T05:42:14;17.53;;;13.17;;
13797;SDS011;6970;51.340;3.240;2023-06-01T05:44:41;18.90;;;12.93;;
13797;SDS011;6970;51.340;3.240;2023-06-01T05:47:08;22.67;;;14.07;;
13797;SDS011;6970;51.340;3.240;2023-06-01T05:49:35;23.03;;;14.87;;
13797;SDS011;6970;51.340;3.240;2023-06-01T05:52:03;19.77;;;15.60;;
13797;SDS011;6970;51.340;3.240;2023-06-01T05:54:31;26.30;;;17.40;;
13797;SDS011;6970;51.340;3.240;2023-06-01T05:56:58;21.33;;;17.13;;
13797;SDS011;6970;51.340;3.240;2023-06-01T05:59:25;23.27;;;16.90;;
13797;SDS011;6970;51.340;3.240;2023-06-01T06:01:52;27.37;;;18.77;;
13797;SDS011;6970;51.340;3.240;2023-06-01T06:04:19;26.87;;;18.67;;
13797;SDS011;6970;51.340;3.240;2023-06-01T06:06:48;27.30;;;18.33;;
13797;SDS011;6970;51.340;3.240;2023-06-01T06:09:15;24.87;;;18.80;;
13797;SDS011;6970;51.340;3.240;2023-06-01T06:11:42;23.93;;;18.73;;
13797;SDS011;6970;51.340;3.240;2023-06-01T06:14:09;23.53;;;18.40;;
13797;SDS011;6970;51.340;3.240;2023-06-01T06:16:40;21.43;;;17.17;;
13797;SDS011;6970;51.340;3.240;2023-06-01T06:19:08;20.67;;;17.63;;
13797;SDS011;6970;51.340;3.240;2023-06-01T06:21:36;23.40;;;17.43;;
13797;SDS011;6970;51.340;3.240;2023-06-01T06:24:04;22.53;;;17.67;;
13797;SDS011;6970;51.340;3.240;2023-06-01T06:26:31;20.60;;;17.07;;
13797;SDS011;6970;51.340;3.240;2023-06-01T06:28:58;21.30;;;17.90;;
13797;SDS011;6970;51.340;3.240;2023-06-01T06:31:25;24.90;;;20.10;;
13797;SDS011;6970;51.340;3.240;2023-06-01T06:33:52;24.43;;;19.23;;
13797;SDS011;6970;51.340;3.240;2023-06-01T06:36:21;25.77;;;18.73;;
13797;SDS011;6970;51.340;3.240;2023-06-01T06:38:48;27.87;;;19.80;;
13797;SDS011;6970;51.340;3.240;2023-06-01T06:41:15;21.87;;;18.67;;
13797;SDS011;6970;51.340;3.240;2023-06-01T06:43:42;20.87;;;17.33;;
13797;SDS011;6970;51.340;3.240;2023-06-01T06:46:09;18.90;;;16.23;;
13797;SDS011;6970;51.340;3.240;2023-06-01T06:48:36;20.67;;;17.17;;
13797;SDS011;6970;51.340;3.240;2023-06-01T06:51:03;21.17;;;16.93;;
13797;SDS011;6970;51.340;3.240;2023-06-01T06:53:30;21.33;;;16.90;;
13797;SDS011;6970;51.340;3.240;2023-06-01T06:55:58;18.30;;;16.30;;
13797;SDS011;6970;51.340;3.240;2023-06-01T06:58:27;21.77;;;18.10;;
13797;SDS011;6970;51.340;3.240;2023-06-01T07:00:54;18.30;;;16.17;;
13797;SDS011;6970;51.340;3.240;2023-06-01T07:03:21;23.40;;;16.90;;
13797;SDS011;6970;51.340;3.240;2023-06-01T07:05:49;16.80;;;15.07;;
13797;SDS011;6970;51.340;3.240;2023-06-01T07:08:16;18.27;;;14.03;;
13797;SDS011;6970;51.340;3.240;2023-06-01T07:10:43;15.77;;;12.50;;
13797;SDS011;6970;51.340;3.240;2023-06-01T07:13:10;16.70;;;12.10;;
13797;SDS011;6970;51.340;3.240;2023-06-01T07:15:37;17.27;;;13.27;;
13797;SDS011;6970;51.340;3.240;2023-06-01T07:18:04;15.17;;;12.20;;
13797;SDS011;6970;51.340;3.240;2023-06-01T07:20:31;15.63;;;10.70;;
13797;SDS011;6970;51.340;3.240;2023-06-01T07:22:59;15.73;;;10.50;;
13797;SDS011;6970;51.340;3.240;2023-06-01T07:25:26;11.87;;;10.57;;
13797;SDS011;6970;51.340;3.240;2023-06-01T07:27:53;12.77;;;10.77;;
13797;SDS011;6970;51.340;3.240;2023-06-01T07:30:22;16.07;;;10.17;;
13797;SDS011;6970;51.340;3.240;2023-06-01T07:32:49;12.73;;;10.10;;
13797;SDS011;6970;51.340;3.240;2023-06-01T07:35:17;12.23;;;10.80;;
13797;SDS011;6970;51.340;3.240;2023-06-01T07:37:44;14.87;;;10.90;;
13797;SDS011;6970;51.340;3.240;2023-06-01T07:40:12;11.03;;;9.87;;
13797;SDS011;6970;51.340;3.240;2023-06-01T07:42:39;11.67;;;10.47;;
13797;SDS011;6970;51.340;3.240;2023-06-01T07:45:07;11.73;;;9.67;;
13797;SDS011;6970;51.340;3.240;2023-06-01T07:47:35;12.67;;;9.97;;
13797;SDS011;6970;51.340;3.240;2023-06-01T07:50:02;12.73;;;10.00;;
13797;SDS011;6970;51.340;3.240;2023-06-01T07:52:30;15.20;;;10.33;;
13797;SDS011;6970;51.340;3.240;2023-06-01T07:54:57;14.97;;;10.80;;
13797;SDS011;6970;51.340;3.240;2023-06-01T07:57:24;15.00;;;13.23;;
13797;SDS011;6970;51.340;3.240;2023-06-01T07:59:51;13.83;;;11.20;;
13797;SDS011;6970;51.340;3.240;2023-06-01T08:02:18;12.60;;;9.60;;
13797;SDS011;6970;51.340;3.240;2023-06-01T08:04:46;14.73;;;10.77;;
13797;SDS011;6970;51.340;3.240;2023-06-01T08:07:14;15.10;;;11.63;;
13797;SDS011;6970;51.340;3.240;2023-06-01T08:09:42;14.17;;;11.63;;
13797;SDS011;6970;51.340;3.240;2023-06-01T08:12:09;22.97;;;11.60;;
13797;SDS011;6970;51.340;3.240;2023-06-01T08:14:38;20.83;;;11.33;;
13797;SDS011;6970;51.340;3.240;2023-06-01T08:17:06;20.80;;;10.90;;
13797;SDS011;6970;51.340;3.240;2023-06-01T08:19:34;19.50;;;10.07;;
13797;SDS011;6970;51.340;3.240;2023-06-01T08:22:01;16.90;;;10.13;;
13797;SDS011;6970;51.340;3.240;2023-06-01T08:24:33;19.00;;;10.30;;
13797;SDS011;6970;51.340;3.240;2023-06-01T08:27:02;12.57;;;10.37;;
13797;SDS011;6970;51.340;3.240;2023-06-01T08:29:41;11.40;;;10.07;;
13797;SDS011;6970;51.340;3.240;2023-06-01T08:32:09;19.03;;;11.40;;
13797;SDS011;6970;51.340;3.240;2023-06-01T08:34:36;23.50;;;11.87;;
13797;SDS011;6970;51.340;3.240;2023-06-01T08:37:03;23.03;;;12.17;;
13797;SDS011;6970;51.340;3.240;2023-06-01T08:39:31;16.23;;;11.60;;
13797;SDS011;6970;51.340;3.240;2023-06-01T08:42:03;18.40;;;11.93;;
13797;SDS011;6970;51.340;3.240;2023-06-01T08:44:38;19.50;;;11.60;;
13797;SDS011;6970;51.340;3.240;2023-06-01T08:47:07;15.53;;;10.40;;
13797;SDS011;6970;51.340;3.240;2023-06-01T08:49:35;27.60;;;10.07;;
13797;SDS011;6970;51.340;3.240;2023-06-01T08:52:11;20.53;;;9.30;;
13797;SDS011;6970;51.340;3.240;2023-06-01T08:54:40;16.57;;;7.93;;
13797;SDS011;6970;51.340;3.240;2023-06-01T08:57:09;20.00;;;8.40;;
13797;SDS011;6970;51.340;3.240;2023-06-01T08:59:37;16.67;;;8.90;;
13797;SDS011;6970;51.340;3.240;2023-06-01T09:02:05;12.47;;;9.10;;
13797;SDS011;6970;51.340;3.240;2023-06-01T09:04:33;17.00;;;9.10;;
13797;SDS011;6970;51.340;3.240;2023-06-01T09:07:01;17.07;;;8.53;;
13797;SDS011;6970;51.340;3.240;2023-06-01T09:09:29;14.13;;;7.53;;
13797;SDS011;6970;51.340;3.240;2023-06-01T09:15:12;21.60;;;7.50;;
13797;SDS011;6970;51.340;3.240;2023-06-01T09:17:44;14.13;;;7.23;;
13797;SDS011;6970;51.340;3.240;2023-06-01T09:20:15;11.53;;;6.90;;
13797;SDS011;6970;51.340;3.240;2023-06-01T09:22:52;22.80;;;7.80;;
13797;SDS011;6970;51.340;3.240;2023-06-01T09:25:27;20.63;;;7.00;;
13797;SDS011;6970;51.340;3.240;2023-06-01T09:27:55;21.30;;;6.93;;
13797;SDS011;6970;51.340;3.240;2023-06-01T09:30:25;23.90;;;7.33;;
13797;SDS011;6970;51.340;3.240;2023-06-01T09:33:10;23.87;;;7.40;;
13797;SDS011;6970;51.340;3.240;2023-06-01T09:35:48;17.07;;;6.63;;
13797;SDS011;6970;51.340;3.240;2023-06-01T09:38:25;15.60;;;5.90;;
13797;SDS011;6970;51.340;3.240;2023-06-01T09:41:11;19.33;;;6.70;;
13797;SDS011;6970;51.340;3.240;2023-06-01T09:43:38;12.90;;;5.60;;
13797;SDS011;6970;51.340;3.240;2023-06-01T09:46:10;17.53;;;6.57;;
13797;SDS011;6970;51.340;3.240;2023-06-01T09:48:40;17.27;;;6.40;;
13797;SDS011;6970;51.340;3.240;2023-06-01T09:51:33;23.53;;;6.57;;
13797;SDS011;6970;51.340;3.240;2023-06-01T09:53:58;12.40;;;5.87;;
13797;SDS011;6970;51.340;3.240;2023-06-01T09:56:25;11.03;;;5.90;;
13797;SDS011;6970;51.340;3.240;2023-06-01T09:58:57;16.17;;;6.13;;
13797;SDS011;6970;51.340;3.240;2023-06-01T10:01:27;12.13;;;5.47;;
13797;SDS011;6970;51.340;3.240;2023-06-01T10:03:57;14.37;;;5.97;;
13797;SDS011;6970;51.340;3.240;2023-06-01T10:06:27;18.23;;;6.27;;
13797;SDS011;6970;51.340;3.240;2023-06-01T10:08:57;12.63;;;5.97;;
13797;SDS011;6970;51.340;3.240;2023-06-01T10:11:25;20.40;;;6.63;;
13797;SDS011;6970;51.340;3.240;2023-06-01T10:13:55;14.77;;;5.63;;
13797;SDS011;6970;51.340;3.240;2023-06-01T10:16:23;11.83;;;5.73;;
13797;SDS011;6970;51.340;3.240;2023-06-01T10:18:50;15.83;;;5.10;;
13797;SDS011;6970;51.340;3.240;2023-06-01T10:21:18;25.30;;;6.23;;
13797;SDS011;6970;51.340;3.240;2023-06-01T10:23:45;18.27;;;5.37;;
13797;SDS011;6970;51.340;3.240;2023-06-01T10:26:13;15.03;;;5.17;;
13797;SDS011;6970;51.340;3.240;2023-06-01T10:28:44;9.37;;;5.13;;
13797;SDS011;6970;51.340;3.240;2023-06-01T10:33:59;14.80;;;4.37;;
13797;SDS011;6970;51.340;3.240;2023-06-01T10:39:26;12.07;;;4.93;;
13797;SDS011;6970;51.340;3.240;2023-06-01T10:41:56;13.57;;;4.37;;
13797;SDS011;6970;51.340;3.240;2023-06-01T10:44:45;17.50;;;5.33;;
13797;SDS011;6970;51.340;3.240;2023-06-01T10:54:56;13.00;;;4.40;;
13797;SDS011;6970;51.340;3.240;2023-06-01T10:57:43;17.20;;;5.40;;
13797;SDS011;6970;51.340;3.240;2023-06-01T11:00:15;12.43;;;4.53;;
13797;SDS011;6970;51.340;3.240;2023-06-01T11:13:17;9.10;;;3.83;;
13797;SDS011;6970;51.340;3.240;2023-06-01T11:18:49;8.03;;;3.80;;
13797;SDS011;6970;51.340;3.240;2023-06-01T11:21:25;18.00;;;5.30;;
13797;SDS011;6970;51.340;3.240;2023-06-01T11:23:56;14.33;;;4.87;;
13797;SDS011;6970;51.340;3.240;2023-06-01T11:26:28;19.07;;;5.23;;
13797;SDS011;6970;51.340;3.240;2023-06-01T11:29:07;24.80;;;5.40;;
13797;SDS011;6970;51.340;3.240;2023-06-01T11:31:46;14.50;;;5.03;;
13797;SDS011;6970;51.340;3.240;2023-06-01T11:34:16;17.97;;;4.00;;
13797;SDS011;6970;51.340;3.240;2023-06-01T11:36:48;14.67;;;4.27;;
13797;SDS011;6970;51.340;3.240;2023-06-01T11:41:48;12.43;;;4.17;;
13797;SDS011;6970;51.340;3.240;2023-06-01T11:44:16;10.67;;;4.73;;
13797;SDS011;6970;51.340;3.240;2023-06-01T11:46:53;10.07;;;3.40;;
13797;SDS011;6970;51.340;3.240;2023-06-01T11:49:22;15.07;;;4.60;;
13797;SDS011;6970;51.340;3.240;2023-06-01T11:51:49;7.83;;;3.87;;
13797;SDS011;6970;51.340;3.240;2023-06-01T11:54:21;15.43;;;3.93;;
13797;SDS011;6970;51.340;3.240;2023-06-01T11:56:49;9.80;;;4.40;;
13797;SDS011;6970;51.340;3.240;2023-06-01T11:59:21;9.20;;;3.90;;
13797;SDS011;6970;51.340;3.240;2023-06-01T12:01:50;8.37;;;3.83;;
13797;SDS011;6970;51.340;3.240;2023-06-01T12:04:20;10.33;;;4.03;;
13797;SDS011;6970;51.340;3.240;2023-06-01T12:06:50;9.90;;;3.67;;
13797;SDS011;6970;51.340;3.240;2023-06-01T12:09:18;13.30;;;4.57;;
13797;SDS011;6970;51.340;3.240;2023-06-01T12:11:47;21.33;;;4.70;;
13797;SDS011;6970;51.340;3.240;2023-06-01T12:14:14;12.10;;;4.40;;
13797;SDS011;6970;51.340;3.240;2023-06-01T12:16:58;12.73;;;4.60;;
13797;SDS011;6970;51.340;3.240;2023-06-01T12:19:28;15.03;;;4.50;;
13797;SDS011;6970;51.340;3.240;2023-06-01T12:21:56;9.43;;;3.90;;
13797;SDS011;6970;51.340;3.240;2023-06-01T12:24:30;10.80;;;3.40;;
13797;SDS011;6970;51.340;3.240;2023-06-01T12:27:03;9.83;;;3.93;;
13797;SDS011;6970;51.340;3.240;2023-06-01T12:29:42;23.67;;;5.33;;
13797;SDS011;6970;51.340;3.240;2023-06-01T12:32:14;8.23;;;4.33;;
13797;SDS011;6970;51.340;3.240;2023-06-01T12:35:01;9.73;;;3.90;;
13797;SDS011;6970;51.340;3.240;2023-06-01T12:37:30;21.93;;;5.10;;
13797;SDS011;6970;51.340;3.240;2023-06-01T12:39:57;10.13;;;4.30;;
13797;SDS011;6970;51.340;3.240;2023-06-01T12:42:39;12.30;;;4.57;;
13797;SDS011;6970;51.340;3.240;2023-06-01T12:45:07;18.60;;;4.90;;
13797;SDS011;6970;51.340;3.240;2023-06-01T12:50:05;19.40;;;4.63;;
13797;SDS011;6970;51.340;3.240;2023-06-01T12:52:35;11.47;;;4.17;;
13797;SDS011;6970;51.340;3.240;2023-06-01T12:55:03;16.07;;;4.97;;
13797;SDS011;6970;51.340;3.240;2023-06-01T12:57:31;9.17;;;4.03;;
13797;SDS011;6970;51.340;3.240;2023-06-01T13:00:00;9.50;;;4.10;;
13797;SDS011;6970;51.340;3.240;2023-06-01T13:02:31;18.43;;;5.07;;
13797;SDS011;6970;51.340;3.240;2023-06-01T13:05:00;11.13;;;4.33;;
13797;SDS011;6970;51.340;3.240;2023-06-01T13:07:27;12.27;;;3.90;;
13797;SDS011;6970;51.340;3.240;2023-06-01T13:09:54;14.83;;;4.40;;
13797;SDS011;6970;51.340;3.240;2023-06-01T13:12:24;9.37;;;3.93;;
13797;SDS011;6970;51.340;3.240;2023-06-01T13:14:51;17.53;;;4.37;;
13797;SDS011;6970;51.340;3.240;2023-06-01T13:17:18;13.63;;;4.23;;
13797;SDS011;6970;51.340;3.240;2023-06-01T13:19:45;9.47;;;3.93;;
13797;SDS011;6970;51.340;3.240;2023-06-01T13:22:12;12.07;;;3.97;;
13797;SDS011;6970;51.340;3.240;2023-06-01T13:24:40;13.83;;;4.40;;
13797;SDS011;6970;51.340;3.240;2023-06-01T13:27:24;12.77;;;4.10;;
13797;SDS011;6970;51.340;3.240;2023-06-01T13:29:51;15.73;;;4.13;;
13797;SDS011;6970;51.340;3.240;2023-06-01T13:32:18;11.50;;;3.67;;
13797;SDS011;6970;51.340;3.240;2023-06-01T13:34:45;10.47;;;3.57;;
13797;SDS011;6970;51.340;3.240;2023-06-01T13:37:12;16.03;;;4.33;;
13797;SDS011;6970;51.340;3.240;2023-06-01T13:39:39;18.03;;;3.90;;
13797;SDS011;6970;51.340;3.240;2023-06-01T13:42:06;11.37;;;3.73;;
13797;SDS011;6970;51.340;3.240;2023-06-01T13:44:34;6.33;;;2.93;;
13797;SDS011;6970;51.340;3.240;2023-06-01T13:47:01;6.60;;;3.17;;
13797;SDS011;6970;51.340;3.240;2023-06-01T13:49:28;13.13;;;3.47;;
13797;SDS011;6970;51.340;3.240;2023-06-01T13:51:55;20.30;;;4.73;;
13797;SDS011;6970;51.340;3.240;2023-06-01T13:54:22;8.93;;;3.90;;
13797;SDS011;6970;51.340;3.240;2023-06-01T13:56:49;20.93;;;4.63;;
13797;SDS011;6970;51.340;3.240;2023-06-01T13:59:16;18.27;;;4.40;;
13797;SDS011;6970;51.340;3.240;2023-06-01T14:01:43;26.47;;;5.17;;
13797;SDS011;6970;51.340;3.240;2023-06-01T14:04:11;12.10;;;4.00;;
13797;SDS011;6970;51.340;3.240;2023-06-01T14:06:39;23.93;;;4.73;;
13797;SDS011;6970;51.340;3.240;2023-06-01T14:09:06;15.60;;;4.17;;
13797;SDS011;6970;51.340;3.240;2023-06-01T14:11:32;10.63;;;3.63;;
13797;SDS011;6970;51.340;3.240;2023-06-01T14:14:00;7.63;;;3.10;;
13797;SDS011;6970;51.340;3.240;2023-06-01T14:16:27;12.10;;;3.33;;
13797;SDS011;6970;51.340;3.240;2023-06-01T14:18:54;6.10;;;2.83;;
13797;SDS011;6970;51.340;3.240;2023-06-01T14:21:21;8.70;;;2.73;;
13797;SDS011;6970;51.340;3.240;2023-06-01T14:23:48;9.10;;;3.17;;
13797;SDS011;6970;51.340;3.240;2023-06-01T14:26:15;4.97;;;2.60;;
13797;SDS011;6970;51.340;3.240;2023-06-01T14:28:42;8.23;;;2.87;;
13797;SDS011;6970;51.340;3.240;2023-06-01T14:31:09;14.43;;;3.20;;
13797;SDS011;6970;51.340;3.240;2023-06-01T14:33:36;8.23;;;2.77;;
13797;SDS011;6970;51.340;3.240;2023-06-01T14:36:03;8.60;;;2.47;;
13797;SDS011;6970;51.340;3.240;2023-06-01T14:38:31;7.97;;;2.53;;
13797;SDS011;6970;51.340;3.240;2023-06-01T14:40:58;4.13;;;2.03;;
13797;SDS011;6970;51.340;3.240;2023-06-01T14:43:25;16.23;;;3.00;;
13797;SDS011;6970;51.340;3.240;2023-06-01T14:45:52;10.57;;;2.60;;
13797;SDS011;6970;51.340;3.240;2023-06-01T14:48:19;6.20;;;2.57;;
13797;SDS011;6970;51.340;3.240;2023-06-01T14:50:46;7.13;;;2.17;;
13797;SDS011;6970;51.340;3.240;2023-06-01T14:53:13;6.27;;;2.27;;
13797;SDS011;6970;51.340;3.240;2023-06-01T14:55:40;8.20;;;2.10;;
13797;SDS011;6970;51.340;3.240;2023-06-01T14:58:08;3.83;;;2.10;;
13797;SDS011;6970;51.340;3.240;2023-06-01T15:00:36;2.70;;;1.10;;
13797;SDS011;6970;51.340;3.240;2023-06-01T15:03:03;7.13;;;1.63;;
13797;SDS011;6970;51.340;3.240;2023-06-01T15:05:31;4.10;;;1.40;;
13797;SDS011;6970;51.340;3.240;2023-06-01T15:07:59;5.53;;;1.87;;
13797;SDS011;6970;51.340;3.240;2023-06-01T15:10:27;7.63;;;1.67;;
13797;SDS011;6970;51.340;3.240;2023-06-01T15:12:55;5.60;;;1.40;;
13797;SDS011;6970;51.340;3.240;2023-06-01T15:15:22;7.77;;;1.87;;
13797;SDS011;6970;51.340;3.240;2023-06-01T15:17:49;9.47;;;2.23;;
13797;SDS011;6970;51.340;3.240;2023-06-01T15:20:16;5.67;;;1.63;;
13797;SDS011;6970;51.340;3.240;2023-06-01T15:22:44;6.67;;;1.57;;
13797;SDS011;6970;51.340;3.240;2023-06-01T15:25:11;4.23;;;1.80;;
13797;SDS011;6970;51.340;3.240;2023-06-01T15:27:38;4.87;;;1.50;;
13797;SDS011;6970;51.340;3.240;2023-06-01T15:30:06;4.77;;;1.67;;
13797;SDS011;6970;51.340;3.240;2023-06-01T15:32:33;2.57;;;1.37;;